createdAt,value
2023-05-11T00:01:08.621Z,100982.38
2023-05-11T00:03:35.472Z,100991.56
2023-05-11T00:06:02.424Z,100986.47
2023-05-11T00:08:28.959Z,100991.72
2023-05-11T00:10:55.051Z,100987.47
2023-05-11T00:13:21.416Z,100980.97
2023-05-11T00:15:47.570Z,100978.75
2023-05-11T00:18:14.016Z,100978.53
2023-05-11T00:20:40.050Z,100977.69
2023-05-11T00:23:06.416Z,100977.00
2023-05-11T00:25:32.577Z,100971.22
2023-05-11T00:27:58.986Z,100981.25
2023-05-11T00:30:25.096Z,100977.47
2023-05-11T00:32:51.559Z,100978.31
2023-05-11T00:35:17.798Z,100976.78
2023-05-11T00:37:44.313Z,100990.03
2023-05-11T00:40:10.635Z,100985.25
2023-05-11T00:42:37.080Z,100979.97
2023-05-11T00:45:03.657Z,100979.63
2023-05-11T00:47:30.261Z,100981.81
2023-05-11T00:49:56.896Z,100990.81
2023-05-11T00:52:24.191Z,100988.59
2023-05-11T00:54:50.810Z,100983.78
2023-05-11T00:57:17.325Z,100985.78
2023-05-11T00:59:43.391Z,100982.66
2023-05-11T01:02:10.211Z,100986.09
2023-05-11T01:04:36.930Z,100984.31
2023-05-11T01:07:12.740Z,100980.16
2023-05-11T01:10:10.435Z,100983.19
2023-05-11T01:13:07.435Z,100988.31
2023-05-11T01:15:55.916Z,100986.53
2023-05-11T01:18:34.224Z,100993.84
2023-05-11T01:21:08.729Z,100986.78
2023-05-11T01:23:38.621Z,100984.59
2023-05-11T01:26:13.841Z,100990.50
2023-05-11T01:28:52.108Z,100991.38
2023-05-11T01:31:19.646Z,100992.91
2023-05-11T01:33:53.317Z,100982.38
2023-05-11T01:36:24.567Z,100986.72
2023-05-11T01:38:53.215Z,100983.84
2023-05-11T01:41:23.849Z,100993.88
2023-05-11T01:43:55.091Z,100994.56
2023-05-11T01:46:24.295Z,100999.31
2023-05-11T01:48:53.976Z,100998.13
2023-05-11T01:51:20.178Z,100998.13
2023-05-11T01:53:47.721Z,100995.72
2023-05-11T01:56:15.032Z,100997.28
2023-05-11T01:58:43.010Z,101002.94
2023-05-11T02:01:10.703Z,101004.03
2023-05-11T02:03:38.827Z,101000.97
2023-05-11T02:06:07.279Z,101006.56
2023-05-11T02:08:37.495Z,101003.63
2023-05-11T02:11:05.833Z,101005.72
2023-05-11T02:13:35.693Z,101005.72
2023-05-11T02:16:03.131Z,101004.72
2023-05-11T02:18:31.161Z,101006.25
2023-05-11T02:20:59.503Z,101006.25
2023-05-11T02:23:27.112Z,101008.28
2023-05-11T02:25:55.169Z,101008.59
2023-05-11T02:28:21.670Z,101005.19
2023-05-11T02:30:51.567Z,101006.66
2023-05-11T02:33:23.930Z,101010.25
2023-05-11T02:35:52.458Z,101011.16
2023-05-11T02:38:20.238Z,101012.66
2023-05-11T02:40:50.802Z,101005.03
2023-05-11T02:43:23.877Z,101009.22
2023-05-11T02:46:00.009Z,101013.50
2023-05-11T02:48:29.804Z,101016.00
2023-05-11T02:51:00.483Z,101017.84
2023-05-11T02:53:34.272Z,101019.41
2023-05-11T02:56:01.078Z,101024.69
2023-05-11T02:58:30.009Z,101018.41
2023-05-11T03:01:08.032Z,101021.28
2023-05-11T03:03:34.842Z,101017.53
2023-05-11T03:06:01.157Z,101021.75
2023-05-11T03:08:28.317Z,101022.75
2023-05-11T03:10:55.957Z,101019.50
2023-05-11T03:13:24.408Z,101022.75
2023-05-11T03:15:53.973Z,101025.47
2023-05-11T03:18:22.060Z,101017.47
2023-05-11T03:20:49.704Z,101024.06
2023-05-11T03:23:17.919Z,101025.47
2023-05-11T03:25:44.967Z,101021.91
2023-05-11T03:28:14.017Z,101017.00
2023-05-11T03:30:47.295Z,101021.75
2023-05-11T03:33:13.767Z,101020.50
2023-05-11T03:35:42.450Z,101024.00
2023-05-11T03:38:11.477Z,101029.66
2023-05-11T03:40:41.089Z,101028.34
2023-05-11T03:43:10.234Z,101026.31
2023-05-11T03:45:37.540Z,101021.34
2023-05-11T03:48:07.610Z,101034.78
2023-05-11T03:50:34.277Z,101023.84
2023-05-11T03:53:00.777Z,101029.75
2023-05-11T03:55:27.283Z,101029.97
2023-05-11T03:57:54.076Z,101030.28
2023-05-11T04:00:21.408Z,101024.91
2023-05-11T04:02:48.225Z,101032.84
2023-05-11T04:05:14.476Z,101035.88
2023-05-11T04:07:44.266Z,101032.53
2023-05-11T04:10:10.651Z,101038.69
2023-05-11T04:12:36.986Z,101027.09
2023-05-11T04:15:03.810Z,101027.41
2023-05-11T04:17:30.197Z,101028.19
2023-05-11T04:19:56.312Z,101033.94
2023-05-11T04:22:22.911Z,101035.19
2023-05-11T04:24:48.984Z,101031.44
2023-05-11T04:27:15.786Z,101032.41
2023-05-11T04:29:41.926Z,101036.13
2023-05-11T04:32:08.301Z,101028.88
2023-05-11T04:34:34.470Z,101030.69
2023-05-11T04:37:06.482Z,101032.75
2023-05-11T04:39:34.245Z,101038.38
2023-05-11T04:42:01.244Z,101027.19
2023-05-11T04:44:28.358Z,101032.56
2023-05-11T04:46:56.007Z,101035.28
2023-05-11T04:49:22.414Z,101043.81
2023-05-11T04:51:48.866Z,101037.97
2023-05-11T04:54:16.045Z,101042.38
2023-05-11T04:56:42.665Z,101041.13
2023-05-11T04:59:09.531Z,101042.81
2023-05-11T05:01:36.169Z,101053.66
2023-05-11T05:04:02.677Z,101048.97
2023-05-11T05:06:29.065Z,101053.13
2023-05-11T05:08:56.356Z,101048.69
2023-05-11T05:11:23.501Z,101050.81
2023-05-11T05:13:50.144Z,101054.97
2023-05-11T05:16:17.079Z,101054.63
2023-05-11T05:18:43.337Z,101057.63
2023-05-11T05:21:09.991Z,101059.81
2023-05-11T05:23:36.089Z,101047.91
2023-05-11T05:26:02.571Z,101053.72
2023-05-11T05:28:30.306Z,101062.22
2023-05-11T05:30:57.471Z,101062.22
2023-05-11T05:33:26.280Z,101065.44
2023-05-11T05:35:53.250Z,101060.16
2023-05-11T05:38:19.657Z,101060.66
2023-05-11T05:40:46.482Z,101064.56
2023-05-11T05:43:12.658Z,101070.38
2023-05-11T05:45:39.339Z,101066.19
2023-05-11T05:48:06.039Z,101063.78
2023-05-11T05:50:33.334Z,101066.50
2023-05-11T05:52:59.459Z,101074.50
2023-05-11T05:55:27.885Z,101072.22
2023-05-11T05:57:55.599Z,101074.78
2023-05-11T06:00:22.361Z,101079.00
2023-05-11T06:02:57.273Z,101080.69
2023-05-11T06:05:26.417Z,101079.34
2023-05-11T06:08:05.970Z,101085.25
2023-05-11T06:10:37.684Z,101088.84
2023-05-11T06:13:04.090Z,101091.97
2023-05-11T06:15:30.690Z,101088.69
2023-05-11T06:18:03.239Z,101088.63
2023-05-11T06:20:31.336Z,101092.91
2023-05-11T06:22:57.595Z,101087.28
2023-05-11T06:25:24.131Z,101094.25
2023-05-11T06:27:50.569Z,101096.09
2023-05-11T06:30:17.871Z,101091.28
2023-05-11T06:32:47.157Z,101099.13
2023-05-11T06:35:16.410Z,101092.16
2023-05-11T06:37:42.628Z,101101.31
2023-05-11T06:40:09.640Z,101098.72
2023-05-11T06:42:54.265Z,101094.75
2023-05-11T06:45:20.983Z,101104.25
2023-05-11T06:47:50.463Z,101091.97
2023-05-11T06:50:18.386Z,101095.69
2023-05-11T06:52:45.637Z,101095.75
2023-05-11T06:55:13.585Z,101099.75
2023-05-11T06:57:40.246Z,101098.72
2023-05-11T07:00:07.526Z,101101.94
2023-05-11T07:02:33.671Z,101098.16
2023-05-11T07:05:00.360Z,101098.38
2023-05-11T07:07:27.001Z,101097.53
2023-05-11T07:09:53.421Z,101101.41
2023-05-11T07:12:19.473Z,101104.72
2023-05-11T07:14:45.818Z,101103.28
2023-05-11T07:17:12.497Z,101105.09
2023-05-11T07:19:39.258Z,101107.22
2023-05-11T07:22:05.346Z,101111.44
2023-05-11T07:24:31.741Z,101105.59
2023-05-11T07:26:57.866Z,101107.66
2023-05-11T07:29:24.246Z,101110.81
2023-05-11T07:31:50.870Z,101106.75
2023-05-11T07:34:17.392Z,101102.72
2023-05-11T07:36:44.201Z,101110.44
2023-05-11T07:39:10.632Z,101111.28
2023-05-11T07:41:36.733Z,101109.53
2023-05-11T07:44:03.186Z,101109.59
2023-05-11T07:46:29.800Z,101108.53
2023-05-11T07:49:11.277Z,101106.78
2023-05-11T07:51:42.101Z,101103.00
2023-05-11T07:54:08.894Z,101109.63
2023-05-11T07:56:35.648Z,101106.00
2023-05-11T07:59:02.361Z,101117.34
2023-05-11T08:01:28.609Z,101114.09
2023-05-11T08:03:55.454Z,101116.75
2023-05-11T08:06:21.892Z,101102.03
2023-05-11T08:08:48.497Z,101116.81
2023-05-11T08:11:14.862Z,101124.38
2023-05-11T08:13:41.655Z,101114.63
2023-05-11T08:16:08.189Z,101111.13
2023-05-11T08:18:34.748Z,101111.38
2023-05-11T08:21:00.963Z,101108.13
2023-05-11T08:23:27.297Z,101113.75
2023-05-11T08:25:55.293Z,101111.91
2023-05-11T08:28:22.445Z,101120.72
2023-05-11T08:30:58.888Z,101104.69
2023-05-11T08:33:37.597Z,101103.78
2023-05-11T08:36:06.171Z,101108.22
2023-05-11T08:38:34.797Z,101102.72
2023-05-11T08:41:01.536Z,101113.97
2023-05-11T08:43:28.608Z,101118.75
2023-05-11T08:46:00.467Z,101108.19
2023-05-11T08:48:28.362Z,101115.41
2023-05-11T08:50:54.441Z,101108.69
2023-05-11T08:53:21.943Z,101111.47
2023-05-11T08:55:50.709Z,101107.69
2023-05-11T08:58:21.707Z,101113.31
2023-05-11T09:00:51.319Z,101110.63
2023-05-11T09:03:21.721Z,101111.59
2023-05-11T09:05:49.171Z,101103.09
2023-05-11T09:08:18.707Z,101106.66
2023-05-11T09:10:45.220Z,101107.47
2023-05-11T09:13:11.937Z,101101.81
2023-05-11T09:15:38.577Z,101101.28
2023-05-11T09:18:05.018Z,101109.97
2023-05-11T09:20:33.022Z,101092.72
2023-05-11T09:23:00.284Z,101096.53
2023-05-11T09:25:31.551Z,101104.13
2023-05-11T09:27:58.913Z,101095.91
2023-05-11T09:30:25.830Z,101101.94
2023-05-11T09:32:57.435Z,101107.75
2023-05-11T09:35:29.098Z,101097.22
2023-05-11T09:38:11.764Z,101101.09
2023-05-11T09:40:43.965Z,101096.38
2023-05-11T09:43:28.121Z,101092.00
2023-05-11T09:45:57.403Z,101097.81
2023-05-11T09:48:26.355Z,101098.47
2023-05-11T09:50:59.798Z,101099.13
2023-05-11T09:53:43.947Z,101088.00
2023-05-11T09:56:12.234Z,101088.63
2023-05-11T09:58:49.503Z,101088.16
2023-05-11T10:01:18.469Z,101092.25
2023-05-11T10:03:56.275Z,101083.50
2023-05-11T10:06:28.014Z,101084.09
2023-05-11T10:08:54.475Z,101083.31
2023-05-11T10:11:24.103Z,101083.91
2023-05-11T10:13:52.291Z,101083.16
2023-05-11T10:16:19.689Z,101085.22
2023-05-11T10:18:46.150Z,101080.28
2023-05-11T10:21:14.720Z,101075.81
2023-05-11T10:23:42.216Z,101083.41
2023-05-11T10:26:09.839Z,101074.16
2023-05-11T10:28:36.501Z,101074.19
2023-05-11T10:31:04.052Z,101071.41
2023-05-11T10:33:30.689Z,101086.34
2023-05-11T10:35:57.289Z,101075.63
2023-05-11T10:38:24.722Z,101065.41
2023-05-11T10:40:54.691Z,101065.94
2023-05-11T10:44:02.951Z,101068.25
2023-05-11T10:47:00.528Z,101064.28
2023-05-11T10:49:38.037Z,101068.56
2023-05-11T10:52:26.790Z,101071.34
2023-05-11T10:55:30.604Z,101066.88
2023-05-11T10:58:06.981Z,101064.63
2023-05-11T11:01:00.657Z,101060.03
2023-05-11T11:03:27.840Z,101055.78
2023-05-11T11:05:54.014Z,101054.88
2023-05-11T11:08:20.460Z,101050.63
2023-05-11T11:10:48.563Z,101060.81
2023-05-11T11:13:16.610Z,101047.81
2023-05-11T11:15:54.899Z,101060.50
2023-05-11T11:18:29.366Z,101053.47
2023-05-11T11:20:57.825Z,101061.47
2023-05-11T11:23:39.922Z,101054.25
2023-05-11T11:26:10.985Z,101059.03
2023-05-11T11:29:04.731Z,101054.50
2023-05-11T11:31:32.847Z,101050.63
2023-05-11T11:34:28.087Z,101050.41
2023-05-11T11:36:54.169Z,101049.03
2023-05-11T11:39:49.264Z,101049.88
2023-05-11T11:42:18.051Z,101040.09
2023-05-11T11:44:45.522Z,101052.31
2023-05-11T11:47:16.612Z,101042.38
2023-05-11T11:49:45.246Z,101034.00
2023-05-11T11:52:12.821Z,101036.34
2023-05-11T11:54:44.554Z,101041.22
2023-05-11T11:57:28.982Z,101036.22
2023-05-11T11:59:55.756Z,101037.72
2023-05-11T12:02:22.640Z,101040.94
2023-05-11T12:04:59.208Z,101038.78
2023-05-11T12:07:26.414Z,101037.28
2023-05-11T12:09:53.155Z,101040.91
2023-05-11T12:12:20.294Z,101037.16
2023-05-11T12:14:50.286Z,101041.50
2023-05-11T12:17:28.677Z,101031.78
2023-05-11T12:20:11.529Z,101033.66
2023-05-11T12:22:37.858Z,101035.34
2023-05-11T12:25:05.851Z,101044.25
2023-05-11T12:27:31.969Z,101038.09
2023-05-11T12:29:59.501Z,101026.50
2023-05-11T12:32:29.803Z,101036.03
2023-05-11T12:35:01.172Z,101033.91
2023-05-11T12:37:29.243Z,101033.06
2023-05-11T12:39:56.999Z,101031.66
2023-05-11T12:42:23.506Z,101030.13
2023-05-11T12:44:50.720Z,101034.34
2023-05-11T12:47:17.060Z,101026.84
2023-05-11T12:49:44.096Z,101020.09
2023-05-11T12:52:12.869Z,101032.75
2023-05-11T12:54:41.046Z,101026.16
2023-05-11T12:57:20.952Z,101026.84
2023-05-11T12:59:47.397Z,101024.16
2023-05-11T13:02:17.522Z,101008.66
2023-05-11T13:04:47.000Z,101020.31
2023-05-11T13:07:22.539Z,101016.53
2023-05-11T13:09:59.747Z,101011.22
2023-05-11T13:12:27.657Z,101017.00
2023-05-11T13:15:05.235Z,101003.00
2023-05-11T13:17:33.367Z,101008.06
2023-05-11T13:20:23.836Z,101009.47
2023-05-11T13:22:50.425Z,101000.88
2023-05-11T13:25:20.131Z,101001.25
2023-05-11T13:27:46.707Z,100994.06
2023-05-11T13:30:13.409Z,100993.91
2023-05-11T13:32:39.729Z,100979.50
2023-05-11T13:35:06.572Z,100984.38
2023-05-11T13:37:32.680Z,100984.66
2023-05-11T13:39:59.129Z,100982.75
2023-05-11T13:42:25.222Z,100976.66
2023-05-11T13:44:51.653Z,100978.50
2023-05-11T13:47:17.834Z,100981.56
2023-05-11T13:49:44.307Z,100977.81
2023-05-11T13:52:10.562Z,100971.50
2023-05-11T13:54:36.955Z,100981.75
2023-05-11T13:57:04.013Z,100976.22
2023-05-11T13:59:30.509Z,100980.47
2023-05-11T14:01:56.741Z,100980.06
2023-05-11T14:04:24.669Z,100967.97
2023-05-11T14:06:50.785Z,100965.91
2023-05-11T14:09:17.381Z,100965.56
2023-05-11T14:11:43.609Z,100965.44
2023-05-11T14:14:10.314Z,100966.66
2023-05-11T14:16:36.408Z,100961.97
2023-05-11T14:19:03.062Z,100962.81
2023-05-11T14:21:29.230Z,100953.84
2023-05-11T14:24:10.651Z,100966.50
2023-05-11T14:26:41.644Z,100959.59
2023-05-11T14:29:08.176Z,100961.28
2023-05-11T14:31:35.565Z,100958.81
2023-05-11T14:34:03.521Z,100965.19
2023-05-11T14:36:31.040Z,100967.34
2023-05-11T14:38:57.635Z,100965.84
2023-05-11T14:41:24.951Z,100968.88
2023-05-11T14:43:51.553Z,100966.66
2023-05-11T14:46:17.860Z,100964.75
2023-05-11T14:48:44.397Z,100961.09
2023-05-11T14:51:10.677Z,100955.84
2023-05-11T14:53:37.202Z,100963.31
2023-05-11T14:56:03.686Z,100957.38
2023-05-11T14:58:32.435Z,100961.13
2023-05-11T15:00:59.645Z,100961.66
2023-05-11T15:03:26.541Z,100967.75
2023-05-11T15:05:52.858Z,100969.38
2023-05-11T15:08:29.567Z,100970.63
2023-05-11T15:10:57.354Z,100968.69
2023-05-11T15:13:24.008Z,100962.94
2023-05-11T15:15:51.013Z,100974.47
2023-05-11T15:18:17.511Z,100955.16
2023-05-11T15:20:44.062Z,100967.75
2023-05-11T15:23:10.866Z,100961.00
2023-05-11T15:25:37.189Z,100958.59
2023-05-11T15:28:03.918Z,100958.19
2023-05-11T15:30:32.540Z,100967.63
2023-05-11T15:32:59.294Z,100966.25
2023-05-11T15:35:25.408Z,100961.28
2023-05-11T15:37:51.813Z,100969.88
2023-05-11T15:40:17.971Z,100961.38
2023-05-11T15:42:44.578Z,100964.38
2023-05-11T15:45:11.130Z,100963.06
2023-05-11T15:47:37.740Z,100977.06
2023-05-11T15:50:04.305Z,100976.03
2023-05-11T15:52:30.714Z,100972.47
2023-05-11T15:54:57.114Z,100980.03
2023-05-11T15:57:23.675Z,100972.00
2023-05-11T15:59:50.195Z,100974.59
2023-05-11T16:02:17.275Z,100976.50
2023-05-11T16:04:43.767Z,100963.97
2023-05-11T16:07:10.325Z,100968.72
2023-05-11T16:09:36.787Z,100970.63
2023-05-11T16:12:03.688Z,100969.38
2023-05-11T16:14:30.380Z,100968.75
2023-05-11T16:16:57.233Z,100970.44
2023-05-11T16:19:23.917Z,100972.13
2023-05-11T16:21:50.687Z,100973.63
2023-05-11T16:24:17.026Z,100970.88
2023-05-11T16:26:43.831Z,100972.13
2023-05-11T16:29:10.400Z,100972.56
2023-05-11T16:31:37.025Z,100968.16
2023-05-11T16:34:03.209Z,100972.00
2023-05-11T16:36:30.239Z,100966.47
2023-05-11T16:38:56.532Z,100968.41
2023-05-11T16:41:28.101Z,100970.50
2023-05-11T16:43:55.234Z,100980.28
2023-05-11T16:46:22.552Z,100967.16
2023-05-11T16:48:48.855Z,100970.97
2023-05-11T16:51:15.279Z,100969.06
2023-05-11T16:53:41.527Z,100976.25
2023-05-11T16:56:08.111Z,100978.38
2023-05-11T16:58:34.955Z,100975.19
2023-05-11T17:01:01.640Z,100981.13
2023-05-11T17:03:27.896Z,100979.84
2023-05-11T17:05:55.519Z,100988.13
2023-05-11T17:08:22.046Z,100978.59
2023-05-11T17:10:48.728Z,100984.50
2023-05-11T17:13:14.995Z,100986.03
2023-05-11T17:15:41.776Z,100985.59
2023-05-11T17:18:08.271Z,100992.16
2023-05-11T17:20:35.227Z,100983.47
2023-05-11T17:23:01.572Z,100984.09
2023-05-11T17:25:29.266Z,100980.09
2023-05-11T17:27:55.630Z,100985.78
2023-05-11T17:30:25.476Z,100984.31
2023-05-11T17:32:56.674Z,100984.50
2023-05-11T17:35:23.621Z,100988.28
2023-05-11T17:37:50.001Z,100991.47
2023-05-11T17:40:17.625Z,100992.09
2023-05-11T17:42:44.050Z,101000.53
2023-05-11T17:45:11.424Z,101005.78
2023-05-11T17:47:38.160Z,101003.66
2023-05-11T17:50:05.380Z,100994.28
2023-05-11T17:52:32.030Z,101003.59
2023-05-11T17:54:59.195Z,101016.22
2023-05-11T17:57:25.788Z,101012.19
2023-05-11T17:59:52.858Z,101018.50
2023-05-11T18:02:19.582Z,101010.88
2023-05-11T18:04:46.655Z,101018.25
2023-05-11T18:07:13.140Z,101025.84
2023-05-11T18:09:39.794Z,101023.50
2023-05-11T18:12:07.280Z,101023.84
2023-05-11T18:14:33.875Z,101024.19
2023-05-11T18:17:00.153Z,101028.81
2023-05-11T18:19:28.022Z,101026.38
2023-05-11T18:21:54.649Z,101027.38
2023-05-11T18:24:21.216Z,101033.25
2023-05-11T18:26:48.346Z,101038.00
2023-05-11T18:29:19.202Z,101045.31
2023-05-11T18:31:45.952Z,101040.81
2023-05-11T18:34:12.456Z,101044.78
2023-05-11T18:36:38.819Z,101045.34
2023-05-11T18:39:05.510Z,101055.66
2023-05-11T18:41:31.960Z,101058.88
2023-05-11T18:43:59.463Z,101054.19
2023-05-11T18:46:25.604Z,101053.63
2023-05-11T18:48:52.696Z,101055.84
2023-05-11T18:51:22.614Z,101064.44
2023-05-11T18:53:49.594Z,101059.47
2023-05-11T18:56:34.639Z,101074.13
2023-05-11T18:59:01.077Z,101078.66
2023-05-11T19:01:46.122Z,101079.44
2023-05-11T19:04:19.034Z,101086.53
2023-05-11T19:06:45.539Z,101082.84
2023-05-11T19:09:12.335Z,101082.34
2023-05-11T19:11:38.597Z,101091.72
2023-05-11T19:14:06.971Z,101090.47
2023-05-11T19:16:35.150Z,101093.50
2023-05-11T19:19:02.204Z,101095.47
2023-05-11T19:21:28.485Z,101101.69
2023-05-11T19:23:55.238Z,101104.81
2023-05-11T19:26:21.970Z,101103.09
2023-05-11T19:28:48.671Z,101104.03
2023-05-11T19:31:14.973Z,101110.72
2023-05-11T19:33:41.686Z,101112.44
2023-05-11T19:36:07.929Z,101119.50
2023-05-11T19:38:38.133Z,101123.63
2023-05-11T19:41:04.536Z,101121.81
2023-05-11T19:43:31.378Z,101127.84
2023-05-11T19:45:58.239Z,101122.91
2023-05-11T19:48:24.968Z,101126.31
2023-05-11T19:50:51.570Z,101128.94
2023-05-11T19:53:18.218Z,101128.75
2023-05-11T19:55:46.016Z,101127.78
2023-05-11T19:58:13.928Z,101124.56
2023-05-11T20:00:40.647Z,101124.06
2023-05-11T20:03:07.795Z,101131.59
2023-05-11T20:05:34.487Z,101129.59
2023-05-11T20:08:01.449Z,101132.03
2023-05-11T20:10:27.932Z,101123.69
2023-05-11T20:12:55.172Z,101129.69
2023-05-11T20:15:21.784Z,101129.19
2023-05-11T20:17:49.530Z,101134.19
2023-05-11T20:20:16.188Z,101138.47
2023-05-11T20:22:42.937Z,101139.38
2023-05-11T20:25:17.535Z,101139.38
2023-05-11T20:27:46.240Z,101145.19
2023-05-11T20:30:13.135Z,101148.28
2023-05-11T20:34:06.772Z,101145.91
2023-05-11T20:35:27.916Z,101146.44
2023-05-11T20:37:55.030Z,101143.56
2023-05-11T20:40:21.578Z,101145.94
2023-05-11T20:42:48.284Z,101151.81
2023-05-11T20:45:14.876Z,101146.34
2023-05-11T20:47:42.021Z,101151.47
2023-05-11T20:50:09.365Z,101156.97
2023-05-11T20:52:36.827Z,101156.81
2023-05-11T20:55:03.312Z,101150.50
2023-05-11T20:57:29.840Z,101152.25
2023-05-11T21:02:25.827Z,101155.31
2023-05-11T21:04:53.332Z,101156.34
2023-05-11T21:07:22.340Z,101153.13
2023-05-11T21:09:48.909Z,101151.94
2023-05-11T21:12:15.891Z,101149.56
2023-05-11T21:14:42.377Z,101151.94
2023-05-11T21:17:08.823Z,101162.88
2023-05-11T21:19:34.996Z,101158.59
2023-05-11T21:22:01.490Z,101154.00
2023-05-11T21:24:27.772Z,101150.91
2023-05-11T21:26:54.181Z,101155.34
2023-05-11T21:29:20.414Z,101155.19
2023-05-11T21:31:46.850Z,101164.91
2023-05-11T21:34:12.993Z,101170.72
2023-05-11T21:36:40.599Z,101164.75
2023-05-11T21:39:06.657Z,101169.69
2023-05-11T21:41:33.150Z,101173.78
2023-05-11T21:43:59.350Z,101174.28
2023-05-11T21:46:26.036Z,101175.47
2023-05-11T21:48:52.088Z,101163.19
2023-05-11T21:51:19.633Z,101176.66
2023-05-11T21:53:45.698Z,101179.03
2023-05-11T21:56:12.211Z,101169.13
2023-05-11T21:58:38.753Z,101180.56
2023-05-11T22:01:05.371Z,101181.06
2023-05-11T22:03:31.714Z,101173.38
2023-05-11T22:05:58.275Z,101185.97
2023-05-11T22:08:24.471Z,101173.88
2023-05-11T22:10:50.666Z,101178.44
2023-05-11T22:13:17.023Z,101185.25
2023-05-11T22:15:43.185Z,101182.19
2023-05-11T22:18:09.801Z,101176.72
2023-05-11T22:20:36.118Z,101182.88
2023-05-11T22:23:02.740Z,101177.03
2023-05-11T22:25:28.932Z,101181.31
2023-05-11T22:27:55.262Z,101187.09
2023-05-11T22:30:21.719Z,101185.41
2023-05-11T22:32:48.331Z,101187.44
2023-05-11T22:35:14.491Z,101188.94
2023-05-11T22:37:40.876Z,101188.38
2023-05-11T22:40:08.039Z,101189.91
2023-05-11T22:42:34.416Z,101196.72
2023-05-11T22:45:00.856Z,101196.41
2023-05-11T22:47:27.268Z,101192.28
2023-05-11T22:49:53.570Z,101188.88
2023-05-11T22:52:20.427Z,101198.75
2023-05-11T22:54:46.950Z,101202.13
2023-05-11T22:57:15.432Z,101188.84
2023-05-11T22:59:41.906Z,101194.75
2023-05-11T23:02:08.462Z,101191.34
2023-05-11T23:04:35.028Z,101197.66
2023-05-11T23:07:01.523Z,101203.22
2023-05-11T23:09:27.712Z,101198.78
2023-05-11T23:11:54.288Z,101204.38
2023-05-11T23:14:20.381Z,101207.44
2023-05-11T23:16:46.825Z,101202.16
2023-05-11T23:19:13.264Z,101200.38
2023-05-11T23:21:40.027Z,101213.38
2023-05-11T23:24:06.375Z,101202.25
2023-05-11T23:26:33.081Z,101210.22
2023-05-11T23:28:59.178Z,101203.53
2023-05-11T23:31:26.981Z,101206.19
2023-05-11T23:33:53.348Z,101203.94
2023-05-11T23:36:19.732Z,101201.88
2023-05-11T23:38:45.823Z,101198.97
2023-05-11T23:41:12.157Z,101198.59
2023-05-11T23:43:38.340Z,101194.84
2023-05-11T23:46:04.746Z,101193.28
2023-05-11T23:48:30.840Z,101198.50
2023-05-11T23:50:57.204Z,101196.94
2023-05-11T23:53:23.291Z,101200.13
2023-05-11T23:55:49.664Z,101193.28
2023-05-11T23:58:21.927Z,101203.09
